Time;durP1;ratioP1;P1;durP2;ratioP2;P2;SDS_P1;SDS_P2;PMS_P1;PMS_P2;Temp;Humidity;BMP_temperature;BMP_pressure;BME280_temperature;BME280_humidity;BME280_pressure;Samples;Min_cycle;Max_cycle;Signal;HPM_P1;HPM_P2
2022/04/30 00:01:27;;;;;;;40.40;19.87;;;23.10;52.50;;;;;;4989211;28;20170;-85
2022/04/30 00:03:53;;;;;;;44.33;20.20;;;23.10;52.50;;;;;;5006207;28;20235;-85
2022/04/30 00:06:19;;;;;;;44.07;21.17;;;23.00;52.50;;;;;;5005167;28;20174;-85
2022/04/30 00:08:45;;;;;;;39.70;19.10;;;23.10;52.50;;;;;;5005499;28;20258;-85
2022/04/30 00:11:11;;;;;;;39.93;20.30;;;23.10;52.50;;;;;;4998031;28;20421;-85
2022/04/30 00:13:37;;;;;;;38.53;20.13;;;23.10;52.50;;;;;;4989803;28;20473;-85
2022/04/30 00:16:03;;;;;;;35.40;18.67;;;23.10;52.50;;;;;;4988997;28;20166;-85
2022/04/30 00:18:30;;;;;;;37.33;20.87;;;23.10;52.50;;;;;;4988180;28;20445;-85
2022/04/30 00:20:58;;;;;;;41.67;21.07;;;23.10;53.10;;;;;;4988612;28;20425;-85
2022/04/30 00:23:24;;;;;;;35.33;19.60;;;23.00;52.50;;;;;;4989396;28;20420;-85
2022/04/30 00:25:52;;;;;;;37.60;20.30;;;23.10;52.60;;;;;;4989771;28;20421;-85
2022/04/30 00:28:19;;;;;;;37.83;19.03;;;23.00;52.50;;;;;;4989660;28;20413;-85
2022/04/30 00:30:46;;;;;;;44.17;18.23;;;23.00;52.50;;;;;;4989556;28;20437;-85
2022/04/30 00:33:12;;;;;;;36.03;17.67;;;23.10;52.50;;;;;;4989705;28;20456;-85
2022/04/30 00:35:38;;;;;;;37.50;19.37;;;23.10;52.50;;;;;;5004819;28;20408;-85
2022/04/30 00:38:05;;;;;;;34.20;18.70;;;23.10;52.60;;;;;;5027188;28;20412;-84
2022/04/30 00:40:31;;;;;;;34.57;18.53;;;23.10;52.50;;;;;;5012276;28;20420;-85
2022/04/30 00:42:57;;;;;;;38.93;18.50;;;23.00;52.50;;;;;;5011519;28;20427;-85
2022/04/30 00:45:24;;;;;;;34.13;16.80;;;23.00;52.50;;;;;;5012188;28;20442;-85
2022/04/30 00:47:50;;;;;;;37.40;17.00;;;23.10;52.60;;;;;;5012390;28;20437;-84
2022/04/30 00:50:22;;;;;;;35.90;17.77;;;23.10;52.50;;;;;;5028368;28;20466;-85
2022/04/30 00:52:52;;;;;;;36.07;19.57;;;23.10;52.50;;;;;;5011866;28;20448;-84
2022/04/30 00:55:22;;;;;;;31.13;17.80;;;23.00;52.50;;;;;;5011924;28;20419;-84
2022/04/30 00:57:54;;;;;;;30.70;16.90;;;23.00;52.50;;;;;;5011540;28;20393;-85
2022/04/30 01:00:20;;;;;;;32.00;16.90;;;23.00;52.50;;;;;;5011448;28;20396;-84
2022/04/30 01:02:46;;;;;;;32.63;17.97;;;23.00;52.50;;;;;;5011007;28;20424;-84
2022/04/30 01:05:12;;;;;;;39.27;20.10;;;23.00;52.50;;;;;;5011228;28;20768;-85
2022/04/30 01:07:41;;;;;;;39.77;18.87;;;23.00;52.50;;;;;;5012136;28;20177;-85
2022/04/30 01:10:08;;;;;;;28.93;17.03;;;23.00;52.50;;;;;;5012120;28;20173;-84
2022/04/30 01:12:34;;;;;;;34.83;16.57;;;23.00;52.50;;;;;;5012239;28;20448;-84
2022/04/30 01:15:04;;;;;;;34.70;17.40;;;23.00;52.50;;;;;;5012174;28;20458;-84
2022/04/30 01:17:31;;;;;;;35.23;18.60;;;23.00;52.50;;;;;;5011361;28;20448;-84
2022/04/30 01:19:58;;;;;;;37.80;17.30;;;23.00;52.50;;;;;;5012222;28;20393;-84
2022/04/30 01:22:36;;;;;;;27.53;15.53;;;23.00;52.50;;;;;;5011052;28;20443;-84
2022/04/30 01:25:02;;;;;;;32.33;17.10;;;23.00;52.50;;;;;;5027780;28;20412;-84
2022/04/30 01:27:29;;;;;;;26.70;15.80;;;23.00;52.50;;;;;;5028263;28;20420;-85
2022/04/30 01:29:56;;;;;;;31.87;17.33;;;23.00;52.50;;;;;;5027899;28;20423;-84
2022/04/30 01:38:01;;;;;;;27.40;15.80;;;23.00;52.50;;;;;;5011866;28;20404;-85
2022/04/30 01:40:29;;;;;;;35.00;17.70;;;23.00;52.60;;;;;;5011578;28;20433;-85
2022/04/30 01:42:58;;;;;;;33.83;17.10;;;23.00;52.60;;;;;;5011900;28;20173;-85
2022/04/30 01:45:25;;;;;;;31.30;17.03;;;23.00;52.50;;;;;;5010504;28;20446;-85
2022/04/30 01:47:52;;;;;;;30.97;17.53;;;23.00;52.60;;;;;;5010067;28;20424;-85
2022/04/30 01:50:18;;;;;;;30.90;15.10;;;23.00;53.10;;;;;;4995100;28;20423;-85
2022/04/30 01:52:43;;;;;;;32.47;16.47;;;23.00;52.60;;;;;;5011197;28;20496;-86
2022/04/30 01:55:11;;;;;;;26.30;16.10;;;23.00;52.50;;;;;;5010864;28;20200;-84
2022/04/30 01:57:41;;;;;;;24.33;15.70;;;23.00;52.50;;;;;;5011211;28;20208;-85
2022/04/30 02:00:20;;;;;;;31.77;16.50;;;23.00;52.50;;;;;;5011247;28;20416;-85
2022/04/30 02:02:49;;;;;;;35.33;16.60;;;23.00;52.50;;;;;;5011025;28;20483;-85
2022/04/30 02:05:18;;;;;;;27.80;14.80;;;23.00;52.50;;;;;;5011067;28;20841;-85
2022/04/30 02:07:51;;;;;;;28.40;14.13;;;23.00;52.50;;;;;;5026142;28;20420;-85
2022/04/30 02:10:20;;;;;;;30.63;16.47;;;23.00;52.50;;;;;;5011170;28;20427;-84
2022/04/30 02:12:49;;;;;;;29.90;15.00;;;23.00;52.50;;;;;;5011697;28;20459;-84
2022/04/30 02:15:16;;;;;;;24.83;15.87;;;23.00;52.50;;;;;;5010886;28;20408;-84
2022/04/30 02:17:46;;;;;;;25.93;15.57;;;23.00;52.50;;;;;;5011122;28;20456;-86
2022/04/30 02:20:33;;;;;;;22.60;13.40;;;23.00;52.40;;;;;;5010041;28;20415;-85
2022/04/30 02:23:09;;;;;;;25.80;14.23;;;23.00;52.40;;;;;;5008965;28;20425;-85
2022/04/30 02:25:36;;;;;;;23.57;14.17;;;23.00;52.40;;;;;;5009724;28;20411;-85
2022/04/30 02:28:04;;;;;;;24.90;14.33;;;23.00;53.10;;;;;;5009596;28;20428;-85
2022/04/30 02:30:37;;;;;;;29.03;14.40;;;23.00;52.40;;;;;;5007347;28;20427;-86
2022/04/30 02:33:16;;;;;;;24.33;13.70;;;23.00;52.40;;;;;;5026642;28;20464;-86
2022/04/30 02:35:44;;;;;;;24.33;13.10;;;23.00;52.50;;;;;;5009120;28;20423;-86
2022/04/30 02:38:11;;;;;;;30.73;15.40;;;22.90;52.40;;;;;;5007999;28;20413;-85
2022/04/30 02:40:38;;;;;;;21.87;12.50;;;23.00;52.50;;;;;;5009804;28;20405;-86
2022/04/30 02:43:06;;;;;;;26.13;14.93;;;22.90;52.40;;;;;;5008528;28;20412;-85
2022/04/30 02:45:33;;;;;;;26.40;14.20;;;23.00;52.50;;;;;;5007926;28;20427;-85
2022/04/30 02:47:59;;;;;;;24.30;13.27;;;22.90;52.40;;;;;;4994618;28;20515;-85
2022/04/30 02:50:25;;;;;;;28.60;16.10;;;22.90;52.40;;;;;;4997403;28;20424;-85
2022/04/30 02:52:55;;;;;;;31.43;15.83;;;22.90;52.40;;;;;;5001376;28;20197;-85
2022/04/30 02:55:22;;;;;;;24.70;14.10;;;22.90;52.40;;;;;;4996140;28;20440;-85
2022/04/30 03:00:47;;;;;;;26.20;14.00;;;22.90;52.40;;;;;;5005451;28;20520;-85
2022/04/30 03:03:15;;;;;;;27.77;13.83;;;22.90;52.50;;;;;;4994036;28;20420;-85
2022/04/30 03:05:43;;;;;;;19.93;12.93;;;22.90;52.50;;;;;;4994602;28;20425;-84
2022/04/30 03:08:28;;;;;;;29.30;14.30;;;22.90;52.50;;;;;;5005175;28;20436;-83
2022/04/30 03:10:56;;;;;;;26.07;15.20;;;22.90;52.50;;;;;;4999519;28;20416;-84
2022/04/30 03:13:24;;;;;;;24.07;12.77;;;22.90;52.60;;;;;;5002304;28;20465;-84
2022/04/30 03:15:52;;;;;;;24.17;13.27;;;22.90;52.60;;;;;;5006226;28;20510;-83
2022/04/30 03:23:38;;;;;;;24.60;14.20;;;22.90;52.50;;;;;;5006651;28;20466;-84
2022/04/30 03:26:05;;;;;;;21.83;13.63;;;22.90;52.50;;;;;;5003549;28;20443;-84
2022/04/30 03:28:32;;;;;;;21.47;13.83;;;22.90;52.50;;;;;;4996442;28;20454;-83
2022/04/30 03:30:59;;;;;;;31.90;14.30;;;22.90;52.50;;;;;;5005629;28;20477;-84
2022/04/30 03:33:26;;;;;;;20.37;12.73;;;22.90;52.50;;;;;;4999511;28;20459;-84
2022/04/30 03:35:52;;;;;;;23.77;15.20;;;22.90;52.50;;;;;;4997897;28;20421;-84
2022/04/30 03:38:18;;;;;;;23.50;12.90;;;22.90;52.50;;;;;;4993821;28;20986;-83
2022/04/30 03:40:44;;;;;;;24.20;14.20;;;22.90;52.50;;;;;;4998443;28;20767;-84
2022/04/30 03:43:09;;;;;;;21.70;12.17;;;22.90;52.50;;;;;;5006499;28;20500;-84
2022/04/30 03:45:36;;;;;;;20.17;12.70;;;22.90;52.50;;;;;;4998743;28;20185;-84
2022/04/30 03:48:03;;;;;;;20.17;13.40;;;22.90;52.40;;;;;;5004967;28;20177;-84
2022/04/30 03:50:29;;;;;;;25.87;15.03;;;22.90;52.40;;;;;;4999555;28;20425;-84
2022/04/30 03:52:55;;;;;;;21.73;13.13;;;22.90;52.40;;;;;;4996107;28;20461;-84
2022/04/30 03:55:20;;;;;;;19.10;12.20;;;22.90;52.40;;;;;;5005940;28;20173;-84
2022/04/30 03:57:46;;;;;;;21.57;12.87;;;22.90;52.40;;;;;;5008941;28;20436;-84
2022/04/30 04:00:13;;;;;;;21.63;12.23;;;22.90;52.40;;;;;;5009608;28;20205;-84
2022/04/30 04:02:43;;;;;;;24.30;12.50;;;22.90;52.40;;;;;;4997693;28;20204;-84
2022/04/30 04:05:13;;;;;;;20.83;13.07;;;22.90;52.40;;;;;;5003285;28;20512;-84
2022/04/30 04:07:40;;;;;;;20.93;12.70;;;22.90;52.40;;;;;;5003639;28;20443;-84
2022/04/30 04:10:09;;;;;;;18.43;12.43;;;22.90;52.40;;;;;;5005724;28;20470;-84
2022/04/30 04:12:35;;;;;;;22.60;14.23;;;22.90;52.40;;;;;;5005244;28;20467;-84
2022/04/30 04:17:45;;;;;;;20.77;12.70;;;22.90;52.40;;;;;;5005777;28;20218;-84
2022/04/30 04:20:13;;;;;;;22.20;12.33;;;22.90;52.40;;;;;;4997181;28;20436;-84
2022/04/30 04:22:39;;;;;;;21.13;11.90;;;22.90;52.40;;;;;;5005636;28;20200;-84
2022/04/30 04:27:55;;;;;;;22.20;12.90;;;22.90;52.50;;;;;;4997601;28;20420;-84
2022/04/30 04:30:27;;;;;;;21.37;12.37;;;22.90;52.50;;;;;;5001075;28;20447;-84
2022/04/30 04:32:54;;;;;;;19.90;11.73;;;22.90;52.50;;;;;;5002118;28;20819;-84
2022/04/30 04:35:20;;;;;;;21.10;12.37;;;22.90;52.50;;;;;;5004638;28;20436;-84
2022/04/30 04:37:46;;;;;;;21.07;12.43;;;22.90;52.60;;;;;;5004380;28;20444;-84
2022/04/30 04:40:13;;;;;;;22.40;12.40;;;22.90;52.60;;;;;;5000868;28;20432;-84
2022/04/30 04:42:41;;;;;;;18.13;11.47;;;22.90;52.60;;;;;;4994769;28;20520;-84
2022/04/30 04:45:07;;;;;;;20.73;12.50;;;22.90;52.60;;;;;;4987163;28;20444;-84
2022/04/30 04:47:40;;;;;;;26.57;14.00;;;22.90;52.60;;;;;;4986158;28;20791;-84
2022/04/30 04:50:09;;;;;;;25.37;13.47;;;22.90;52.60;;;;;;4985842;28;20523;-84
2022/04/30 04:52:35;;;;;;;22.10;12.43;;;22.90;52.60;;;;;;4984839;28;20487;-84
2022/04/30 04:55:01;;;;;;;25.33;12.83;;;22.90;52.60;;;;;;4986524;28;20409;-83
2022/04/30 04:57:27;;;;;;;21.57;11.70;;;22.90;52.60;;;;;;4986944;28;20409;-83
2022/04/30 04:59:54;;;;;;;19.00;11.43;;;22.90;52.60;;;;;;4985529;28;20266;-84
2022/04/30 05:02:20;;;;;;;20.90;12.13;;;22.90;52.60;;;;;;4986344;28;20176;-84
2022/04/30 05:04:47;;;;;;;21.30;12.40;;;22.90;52.60;;;;;;4986768;28;20413;-84
2022/04/30 05:07:13;;;;;;;19.43;11.53;;;22.90;52.60;;;;;;4986709;28;20508;-84
2022/04/30 05:09:39;;;;;;;21.50;11.77;;;22.90;52.60;;;;;;4985235;28;20428;-85
2022/04/30 05:12:05;;;;;;;23.43;13.07;;;22.90;52.60;;;;;;4988835;28;20472;-84
2022/04/30 05:14:32;;;;;;;20.60;12.90;;;22.90;52.60;;;;;;5002349;28;20181;-84
2022/04/30 05:17:02;;;;;;;21.33;13.77;;;22.90;52.60;;;;;;5009146;28;20425;-83
2022/04/30 05:19:28;;;;;;;21.20;11.50;;;22.90;52.60;;;;;;5008844;28;20428;-84
2022/04/30 05:21:54;;;;;;;22.87;12.47;;;22.90;52.60;;;;;;5010461;28;20914;-84
2022/04/30 05:24:21;;;;;;;20.90;12.80;;;22.90;52.60;;;;;;5012404;28;20424;-84
2022/04/30 05:26:47;;;;;;;19.57;11.30;;;22.90;52.60;;;;;;5008948;28;20427;-86
2022/04/30 05:29:16;;;;;;;17.87;11.97;;;22.90;52.60;;;;;;5010079;28;20448;-87
2022/04/30 05:31:43;;;;;;;19.17;12.30;;;23.00;52.70;;;;;;5008153;28;20209;-84
2022/04/30 05:34:09;;;;;;;18.03;10.70;;;23.00;52.70;;;;;;5009076;28;20424;-84
2022/04/30 05:36:35;;;;;;;19.00;11.53;;;23.00;52.70;;;;;;5010182;28;20933;-85
2022/04/30 05:39:01;;;;;;;18.33;10.57;;;23.00;52.70;;;;;;5008407;28;20487;-85
2022/04/30 05:41:28;;;;;;;22.17;11.93;;;23.00;52.70;;;;;;5011511;28;20173;-84
2022/04/30 05:43:56;;;;;;;21.23;11.30;;;23.00;52.70;;;;;;4997746;28;20484;-84
2022/04/30 05:46:22;;;;;;;19.57;11.23;;;23.00;52.70;;;;;;4990964;28;20413;-84
2022/04/30 05:48:49;;;;;;;20.97;12.03;;;23.00;52.70;;;;;;4991709;28;20603;-84
2022/04/30 05:51:15;;;;;;;16.83;10.83;;;23.00;52.70;;;;;;4992129;28;20436;-84
2022/04/30 05:53:41;;;;;;;18.63;11.43;;;23.00;52.70;;;;;;4991466;28;20491;-84
2022/04/30 05:56:07;;;;;;;20.57;11.27;;;23.00;52.70;;;;;;4999250;28;20448;-84
2022/04/30 05:58:33;;;;;;;20.80;10.90;;;23.00;52.70;;;;;;5010694;28;20430;-84
2022/04/30 06:00:59;;;;;;;17.83;11.20;;;23.00;52.70;;;;;;4995020;28;20783;-85
2022/04/30 06:03:25;;;;;;;19.57;11.40;;;23.00;52.70;;;;;;5000055;28;20440;-84
2022/04/30 06:05:51;;;;;;;16.40;11.80;;;23.00;52.70;;;;;;4993743;28;20189;-86
2022/04/30 06:08:17;;;;;;;15.77;11.07;;;23.00;52.70;;;;;;5007977;28;20507;-85
2022/04/30 06:10:43;;;;;;;17.37;10.53;;;23.00;52.70;;;;;;5013119;28;20181;-85
2022/04/30 06:13:09;;;;;;;17.73;10.00;;;23.00;52.70;;;;;;5009248;28;20220;-86
2022/04/30 06:15:35;;;;;;;20.07;9.87;;;23.00;52.70;;;;;;5005283;28;20438;-84
2022/04/30 06:18:01;;;;;;;19.00;10.77;;;23.00;52.60;;;;;;5003971;28;20480;-86
2022/04/30 06:20:33;;;;;;;15.80;10.80;;;23.00;52.60;;;;;;5010912;28;20190;-86
2022/04/30 06:23:00;;;;;;;14.60;9.17;;;23.00;52.50;;;;;;5007294;28;20185;-86
2022/04/30 06:25:27;;;;;;;11.97;8.07;;;23.00;53.00;;;;;;5013709;28;20432;-86
2022/04/30 06:27:53;;;;;;;9.53;7.90;;;23.00;52.30;;;;;;5010320;28;20822;-86
2022/04/30 06:30:20;;;;;;;10.87;7.37;;;23.00;52.20;;;;;;5011585;28;20425;-85
2022/04/30 06:32:46;;;;;;;10.37;7.53;;;23.00;52.20;;;;;;5032086;28;20212;-85
2022/04/30 06:35:12;;;;;;;14.67;8.67;;;23.00;52.20;;;;;;5018758;28;20436;-86
2022/04/30 06:37:37;;;;;;;11.90;9.00;;;23.00;52.30;;;;;;5009632;28;20192;-86
2022/04/30 06:40:05;;;;;;;11.20;7.53;;;23.00;52.20;;;;;;5008445;28;20193;-85
2022/04/30 06:42:40;;;;;;;12.30;7.90;;;23.00;52.30;;;;;;5005181;28;20218;-86
2022/04/30 06:45:07;;;;;;;13.00;8.40;;;23.00;52.30;;;;;;5021703;28;20444;-85
2022/04/30 06:47:32;;;;;;;16.00;9.23;;;23.00;52.30;;;;;;5010012;28;20428;-86
2022/04/30 06:49:58;;;;;;;10.67;8.00;;;23.00;52.30;;;;;;5012970;28;20429;-85
2022/04/30 06:52:25;;;;;;;11.57;8.50;;;23.00;52.30;;;;;;5017924;28;20204;-86
2022/04/30 06:57:35;;;;;;;11.67;7.93;;;23.00;52.40;;;;;;5018866;28;20422;-86
2022/04/30 07:01:24;;;;;;;12.40;7.83;;;23.00;52.40;;;;;;5016096;28;20440;-86
2022/04/30 07:02:47;;;;;;;13.00;8.13;;;23.00;52.40;;;;;;5020655;28;20186;-86
2022/04/30 07:05:12;;;;;;;13.67;8.17;;;23.00;52.40;;;;;;5007832;28;20444;-86
2022/04/30 07:07:38;;;;;;;11.20;7.40;;;23.00;52.40;;;;;;5006714;28;20255;-87
2022/04/30 07:10:04;;;;;;;13.70;8.83;;;23.00;52.40;;;;;;5008121;28;20674;-86
2022/04/30 07:12:30;;;;;;;11.67;7.57;;;23.00;52.40;;;;;;5008223;28;20205;-86
2022/04/30 07:14:56;;;;;;;11.23;7.77;;;23.00;52.40;;;;;;5008694;28;20421;-86
2022/04/30 07:17:22;;;;;;;11.83;8.23;;;23.00;52.40;;;;;;5008945;28;20211;-86
2022/04/30 07:19:48;;;;;;;12.00;7.40;;;23.00;52.40;;;;;;5007203;28;20424;-86
2022/04/30 07:22:15;;;;;;;11.33;7.60;;;23.00;52.40;;;;;;5008697;28;20180;-85
2022/04/30 07:24:40;;;;;;;11.40;7.20;;;23.00;52.30;;;;;;5008610;28;20261;-86
2022/04/30 07:27:09;;;;;;;13.67;8.10;;;23.00;52.30;;;;;;5008434;28;20424;-85
2022/04/30 07:29:38;;;;;;;11.00;7.80;;;23.10;52.40;;;;;;5007791;28;20200;-85
2022/04/30 07:32:08;;;;;;;12.30;7.70;;;23.10;52.40;;;;;;5007269;28;20487;-85
2022/04/30 07:34:35;;;;;;;12.17;7.40;;;23.10;52.40;;;;;;5003980;28;20418;-85
2022/04/30 07:37:01;;;;;;;13.67;7.40;;;23.10;52.40;;;;;;4987667;28;20424;-86
2022/04/30 07:39:27;;;;;;;13.13;7.57;;;23.10;52.40;;;;;;4988020;28;20421;-85
2022/04/30 07:41:54;;;;;;;11.23;6.53;;;23.10;52.40;;;;;;4987038;28;21004;-86
2022/04/30 07:44:20;;;;;;;8.50;6.67;;;23.10;52.40;;;;;;4987947;28;20205;-85
2022/04/30 07:46:46;;;;;;;9.90;6.90;;;23.10;52.30;;;;;;4987652;28;20504;-85
2022/04/30 07:49:12;;;;;;;9.37;6.90;;;23.10;52.30;;;;;;4987502;28;20418;-85
2022/04/30 07:51:52;;;;;;;10.23;7.00;;;23.10;52.30;;;;;;4988335;28;20464;-86
2022/04/30 07:54:22;;;;;;;13.77;7.77;;;23.10;52.30;;;;;;4987547;28;20218;-86
2022/04/30 07:56:55;;;;;;;11.60;7.90;;;23.10;52.40;;;;;;4987502;28;20450;-85
2022/04/30 07:59:21;;;;;;;9.80;6.93;;;23.10;52.30;;;;;;4987522;28;20404;-85
2022/04/30 08:01:50;;;;;;;9.70;6.90;;;23.10;52.30;;;;;;4987541;28;20409;-87
2022/04/30 08:04:16;;;;;;;12.13;7.23;;;23.10;52.30;;;;;;4986109;28;20902;-85
2022/04/30 08:06:42;;;;;;;9.37;6.10;;;23.10;52.30;;;;;;4986802;28;20413;-84
2022/04/30 08:09:08;;;;;;;11.77;7.30;;;23.10;52.30;;;;;;4986656;28;20919;-86
2022/04/30 08:11:34;;;;;;;10.00;6.60;;;23.10;52.30;;;;;;4986924;28;20177;-86
2022/04/30 08:14:04;;;;;;;11.83;7.20;;;23.10;52.30;;;;;;4973197;28;20201;-84
2022/04/30 08:16:31;;;;;;;13.40;7.13;;;23.10;52.30;;;;;;5057410;28;20428;-82
2022/04/30 08:18:59;;;;;;;9.53;5.97;;;23.10;52.30;;;;;;5110949;28;20481;-81
2022/04/30 08:21:32;;;;;;;11.93;7.03;;;23.10;52.40;;;;;;5115327;28;20408;-81
2022/04/30 08:23:59;;;;;;;9.90;6.30;;;23.10;52.40;;;;;;5098791;28;20419;-83
2022/04/30 08:26:26;;;;;;;9.20;6.30;;;23.10;52.40;;;;;;5116088;28;20420;-81
2022/04/30 08:29:02;;;;;;;8.90;6.50;;;23.10;52.40;;;;;;5115026;28;20499;-82
2022/04/30 08:31:32;;;;;;;12.33;6.87;;;23.10;52.40;;;;;;5115711;28;20418;-82
2022/04/30 08:33:59;;;;;;;14.50;7.63;;;23.10;52.50;;;;;;5115432;28;20478;-82
2022/04/30 08:36:25;;;;;;;11.60;6.93;;;23.10;52.50;;;;;;5112641;28;20438;-85
2022/04/30 08:38:54;;;;;;;8.47;6.90;;;23.10;52.50;;;;;;5094662;28;20491;-84
2022/04/30 08:41:21;;;;;;;9.50;6.77;;;23.20;52.60;;;;;;5114901;28;20415;-83
2022/04/30 08:43:51;;;;;;;11.50;6.67;;;23.20;52.50;;;;;;5113698;28;20424;-83
2022/04/30 08:46:23;;;;;;;9.07;6.20;;;23.20;52.50;;;;;;5048944;28;20460;-84
2022/04/30 08:48:52;;;;;;;7.80;5.63;;;23.20;52.50;;;;;;4991291;28;20419;-83
2022/04/30 08:51:20;;;;;;;8.33;6.17;;;23.20;52.50;;;;;;4992040;28;20460;-83
2022/04/30 08:53:46;;;;;;;10.13;5.67;;;23.20;53.10;;;;;;4975369;28;20456;-83
2022/04/30 08:56:12;;;;;;;9.03;5.80;;;23.20;52.50;;;;;;4993334;28;20425;-84
2022/04/30 08:58:43;;;;;;;11.50;6.97;;;23.20;52.50;;;;;;4994538;28;20436;-84
2022/04/30 09:01:10;;;;;;;10.73;6.67;;;23.20;52.50;;;;;;4979130;28;20431;-83
2022/04/30 09:03:38;;;;;;;11.00;6.30;;;23.20;52.50;;;;;;4994351;28;20432;-83
2022/04/30 09:06:08;;;;;;;7.87;5.90;;;23.20;52.50;;;;;;4995042;28;20421;-83
2022/04/30 09:08:35;;;;;;;7.80;6.00;;;23.20;52.50;;;;;;4995722;28;20480;-84
2022/04/30 09:11:08;;;;;;;7.27;4.70;;;23.20;52.40;;;;;;4979014;28;20447;-84
2022/04/30 09:13:44;;;;;;;7.53;6.00;;;23.20;52.50;;;;;;4993888;28;20463;-84
2022/04/30 09:16:21;;;;;;;7.13;5.27;;;23.20;52.40;;;;;;4994900;28;20416;-84
2022/04/30 09:18:49;;;;;;;8.20;6.23;;;23.20;52.40;;;;;;4994110;28;20447;-84
2022/04/30 09:21:16;;;;;;;8.00;6.10;;;23.20;52.40;;;;;;4993831;28;20420;-84
2022/04/30 09:23:43;;;;;;;6.10;4.97;;;23.20;52.40;;;;;;4994059;28;20417;-84
2022/04/30 09:26:15;;;;;;;6.63;5.57;;;23.20;52.40;;;;;;5030396;28;20449;-84
2022/04/30 09:28:46;;;;;;;5.90;5.20;;;23.20;52.40;;;;;;5080389;28;20427;-84
2022/04/30 09:31:13;;;;;;;7.23;5.53;;;23.20;52.40;;;;;;5014001;28;20996;-83
2022/04/30 09:33:48;;;;;;;6.07;4.90;;;23.20;52.40;;;;;;5014084;28;20480;-84
2022/04/30 09:38:59;;;;;;;6.73;5.50;;;23.20;52.40;;;;;;5013462;28;20396;-84
2022/04/30 09:41:27;;;;;;;6.60;5.20;;;23.20;52.40;;;;;;5010961;28;20424;-83
2022/04/30 09:44:12;;;;;;;6.33;4.80;;;23.10;52.30;;;;;;4993798;28;20394;-83
2022/04/30 09:46:40;;;;;;;7.83;5.00;;;23.20;52.40;;;;;;4993927;28;20505;-82
2022/04/30 09:54:42;;;;;;;8.10;5.67;;;23.10;52.30;;;;;;5007151;28;20408;-82
2022/04/30 09:57:10;;;;;;;7.93;4.80;;;23.10;52.30;;;;;;5012911;28;20470;-82
2022/04/30 09:59:38;;;;;;;8.17;5.80;;;23.10;52.30;;;;;;5014563;28;20463;-82
2022/04/30 10:02:10;;;;;;;6.80;5.10;;;23.10;52.30;;;;;;5012840;28;20423;-83
2022/04/30 10:04:37;;;;;;;6.53;5.10;;;23.10;52.30;;;;;;5013341;28;20428;-83
2022/04/30 10:07:06;;;;;;;6.53;5.30;;;23.10;52.30;;;;;;5000235;28;20429;-85
2022/04/30 10:09:55;;;;;;;7.93;5.40;;;23.20;52.40;;;;;;5028970;28;20538;-84
2022/04/30 10:12:32;;;;;;;7.00;5.33;;;23.20;52.40;;;;;;5014050;28;20466;-83
2022/04/30 10:15:21;;;;;;;5.90;4.67;;;23.20;52.40;;;;;;5012308;28;20420;-84
2022/04/30 10:17:53;;;;;;;5.43;4.93;;;23.20;52.40;;;;;;5012761;28;20500;-83
2022/04/30 10:20:36;;;;;;;5.80;5.20;;;23.10;52.20;;;;;;5013067;28;20384;-84
2022/04/30 10:23:04;;;;;;;7.07;4.70;;;23.10;52.30;;;;;;4997530;28;20419;-83
2022/04/30 10:25:36;;;;;;;5.93;4.90;;;23.10;52.20;;;;;;4995804;28;20459;-85
2022/04/30 10:28:21;;;;;;;6.23;4.50;;;23.10;52.30;;;;;;5012713;28;20425;-83
2022/04/30 10:31:04;;;;;;;5.33;4.30;;;23.10;52.20;;;;;;5013230;28;20436;-84
2022/04/30 10:33:31;;;;;;;6.50;4.73;;;23.10;52.20;;;;;;5013112;28;20455;-83
2022/04/30 10:36:06;;;;;;;6.30;5.00;;;23.10;52.20;;;;;;5013154;28;20393;-84
2022/04/30 10:38:33;;;;;;;5.00;4.40;;;23.10;52.20;;;;;;5012194;28;20852;-84
2022/04/30 10:41:02;;;;;;;5.37;4.70;;;23.10;52.20;;;;;;4996836;28;20429;-84
2022/04/30 10:43:34;;;;;;;4.57;3.67;;;23.10;52.30;;;;;;4989452;28;20428;-85
2022/04/30 10:46:03;;;;;;;5.63;4.10;;;23.10;52.20;;;;;;4990852;28;20412;-84
2022/04/30 10:48:29;;;;;;;5.20;4.70;;;23.10;52.20;;;;;;5006228;28;20563;-84
2022/04/30 10:51:50;;;;;;;6.60;5.23;;;23.10;52.20;;;;;;4989219;28;20413;-83
2022/04/30 10:54:20;;;;;;;4.60;4.10;;;23.10;52.20;;;;;;4991401;28;20436;-82
2022/04/30 10:56:57;;;;;;;5.67;4.73;;;23.10;52.20;;;;;;4973732;28;20888;-83
2022/04/30 10:59:24;;;;;;;4.73;4.23;;;23.10;52.20;;;;;;4991651;28;20421;-85
2022/04/30 11:01:51;;;;;;;4.90;4.40;;;23.10;52.20;;;;;;4992701;28;20428;-84
2022/04/30 11:04:18;;;;;;;6.60;4.10;;;23.10;52.20;;;;;;4992837;28;20409;-84
2022/04/30 11:06:50;;;;;;;5.53;4.17;;;23.10;52.20;;;;;;4992514;28;20429;-84
2022/04/30 11:09:16;;;;;;;6.33;4.53;;;23.10;52.20;;;;;;5004775;28;20419;-84
2022/04/30 11:11:47;;;;;;;5.00;4.50;;;23.10;52.10;;;;;;5012131;28;20440;-83
2022/04/30 11:14:14;;;;;;;4.40;4.00;;;23.10;52.10;;;;;;5011495;28;20413;-84
2022/04/30 11:16:45;;;;;;;5.13;4.63;;;23.10;52.10;;;;;;4992675;28;20436;-85
2022/04/30 11:19:14;;;;;;;4.43;3.80;;;23.10;52.10;;;;;;4989841;28;20444;-84
2022/04/30 11:21:44;;;;;;;4.00;3.60;;;23.10;52.10;;;;;;4991848;28;20417;-84
2022/04/30 11:24:12;;;;;;;4.90;4.50;;;23.10;52.10;;;;;;5007198;28;20403;-84
2022/04/30 11:26:44;;;;;;;6.93;4.50;;;23.10;52.10;;;;;;5011817;28;20413;-83
2022/04/30 11:29:12;;;;;;;6.90;4.33;;;23.10;52.10;;;;;;5010150;28;20404;-84
2022/04/30 11:31:39;;;;;;;4.30;3.90;;;23.10;52.00;;;;;;5010836;28;20515;-83
2022/04/30 11:34:12;;;;;;;4.40;3.80;;;23.10;52.00;;;;;;5010189;28;20416;-84
2022/04/30 11:36:44;;;;;;;4.90;3.83;;;23.10;52.00;;;;;;5011727;28;20416;-83
2022/04/30 11:39:12;;;;;;;4.53;3.83;;;23.10;52.00;;;;;;5010593;28;20428;-83
2022/04/30 11:41:48;;;;;;;5.17;4.63;;;23.10;52.00;;;;;;5011823;28;20404;-83
2022/04/30 11:44:25;;;;;;;4.90;4.27;;;23.00;51.90;;;;;;4994669;28;20417;-84
2022/04/30 11:46:53;;;;;;;5.70;4.37;;;23.00;51.90;;;;;;5010009;28;20397;-84
2022/04/30 11:49:21;;;;;;;4.47;4.07;;;23.00;51.90;;;;;;5007488;28;20418;-84
2022/04/30 11:51:50;;;;;;;4.93;3.93;;;23.00;51.80;;;;;;5006278;28;20452;-83
2022/04/30 11:54:21;;;;;;;5.03;4.07;;;23.00;51.80;;;;;;4992035;28;20416;-83
2022/04/30 11:56:48;;;;;;;4.33;3.97;;;23.00;51.80;;;;;;4998807;28;20425;-83
2022/04/30 11:59:17;;;;;;;4.70;4.00;;;23.00;51.80;;;;;;4991602;28;20412;-82
2022/04/30 12:01:44;;;;;;;5.10;4.57;;;23.00;51.80;;;;;;4991126;28;20421;-82
2022/04/30 12:04:11;;;;;;;4.97;4.10;;;23.00;51.70;;;;;;4992006;28;20417;-83
2022/04/30 12:06:39;;;;;;;4.63;4.07;;;23.00;51.70;;;;;;4991220;28;20437;-83
2022/04/30 12:09:20;;;;;;;4.10;3.80;;;23.00;51.70;;;;;;4990936;28;20451;-83
2022/04/30 12:11:51;;;;;;;6.50;3.87;;;23.00;51.70;;;;;;4991863;28;20481;-84
2022/04/30 12:14:19;;;;;;;4.37;3.97;;;23.00;51.70;;;;;;5000781;28;20911;-83
2022/04/30 12:16:47;;;;;;;5.33;4.83;;;23.00;51.70;;;;;;4999920;28;20413;-82
2022/04/30 12:25:21;;;;;;;4.30;3.90;;;23.00;51.70;;;;;;4970564;29;20869;-84
2022/04/30 12:28:02;;;;;;;4.73;3.80;;;23.00;51.70;;;;;;4970568;29;20414;-82
2022/04/30 12:30:29;;;;;;;3.67;3.37;;;23.00;51.70;;;;;;4987556;28;20442;-83
2022/04/30 12:33:05;;;;;;;4.27;3.87;;;23.00;51.70;;;;;;4974169;29;20466;-82
2022/04/30 12:35:38;;;;;;;5.00;4.50;;;23.00;51.80;;;;;;4975136;28;20413;-83
2022/04/30 12:38:14;;;;;;;5.20;4.07;;;23.00;51.80;;;;;;4974066;29;20421;-83
2022/04/30 12:40:47;;;;;;;4.50;4.10;;;23.00;51.80;;;;;;4974000;29;20422;-83
2022/04/30 12:43:16;;;;;;;4.60;4.20;;;23.00;51.80;;;;;;4973145;29;20476;-82
2022/04/30 12:45:48;;;;;;;5.37;4.20;;;23.00;51.80;;;;;;4941148;29;20445;-82
2022/04/30 12:48:15;;;;;;;4.20;3.80;;;23.00;51.80;;;;;;4973657;29;20425;-82
2022/04/30 12:50:42;;;;;;;4.07;3.67;;;23.00;51.80;;;;;;4973634;29;20428;-83
2022/04/30 12:53:09;;;;;;;4.80;4.40;;;23.00;51.80;;;;;;4956971;29;20492;-83
2022/04/30 12:55:42;;;;;;;4.23;3.83;;;23.00;51.80;;;;;;5047845;28;20418;-83
2022/04/30 12:58:09;;;;;;;5.10;4.60;;;23.00;51.80;;;;;;5039482;28;20446;-83
2022/04/30 13:00:40;;;;;;;4.40;4.00;;;23.00;51.80;;;;;;5028814;28;20422;-83
2022/04/30 13:03:07;;;;;;;4.60;3.13;;;23.00;51.80;;;;;;5012564;28;20844;-82
2022/04/30 13:05:33;;;;;;;5.83;3.90;;;23.00;51.80;;;;;;5014000;28;20400;-83
2022/04/30 13:08:05;;;;;;;4.30;3.80;;;23.00;51.80;;;;;;5027558;28;20428;-84
2022/04/30 13:13:31;;;;;;;4.87;3.67;;;23.00;51.80;;;;;;5014067;28;20466;-83
2022/04/30 13:16:04;;;;;;;4.17;3.73;;;23.00;51.80;;;;;;5014018;28;20396;-82
2022/04/30 13:18:33;;;;;;;4.20;3.80;;;23.00;51.90;;;;;;5029588;28;20439;-84
2022/04/30 13:21:02;;;;;;;4.70;4.30;;;23.00;51.80;;;;;;5008548;28;20413;-83
2022/04/30 13:23:30;;;;;;;3.30;2.63;;;23.00;51.90;;;;;;4991919;28;20409;-83